Date,TemperatureHighF,TemperatureAvgF,TemperatureLowF,DewpointHighF,DewpointAvgF,DewpointLowF,HumidityHigh,HumidityAvg,HumidityLow,PressureMaxIn,PressureMinIn,WindSpeedMaxMPH,WindSpeedAvgMPH,GustSpeedMaxMPH,PrecipitationSumIn
2013-1-1,33,22,12,18,14,10,96,72,44,30.41,30.24,20,4,22,0.04
2013-1-2,37,21,9,13,10,6,97,66,29,30.43,30.23,12,2,15,0.00
2013-1-3,35,22,14,12,9,5,83,60,35,30.48,30.35,16,4,16,0.00
2013-1-4,36,20,8,7,4,0,83,51,26,30.49,30.27,11,4,13,0.00
2013-1-5,41,26,13,8,4,1,70,42,19,30.51,30.35,14,3,19,0.00
2013-1-6,41,28,15,8,6,4,66,42,23,30.53,30.27,12,2,15,0.00
2013-1-7,48,35,28,18,12,8,62,41,26,30.28,30.06,15,2,18,0.00
2013-1-8,47,33,21,18,14,8,74,49,23,30.38,30.10,21,7,26,0.00
2013-1-9,54,37,23,16,14,10,65,41,21,30.51,30.28,12,2,16,0.00
2013-1-10,43,33,25,15,12,10,57,42,27,30.31,29.95,9,0,12,0.00
2013-1-11,39,29,13,23,5,-10,62,37,17,30.14,29.84,22,8,36,0.00
2013-1-12,31,17,9,0,-4,-13,60,40,20,30.22,30.00,14,4,22,0.00
2013-1-13,28,16,3,4,0,-3,81,52,30,30.26,30.08,10,1,12,0.00
2013-1-14,26,17,11,23,10,-1,96,75,47,30.26,30.10,18,3,26,0.02
2013-1-15,21,13,5,4,1,-2,78,58,41,30.48,30.24,25,9,28,0.00
2013-1-16,38,23,8,13,7,0,76,51,34,30.55,30.37,14,3,18,0.00
2013-1-17,48,31,17,16,12,9,74,49,27,30.61,30.42,11,1,16,0.04
2013-1-18,52,37,22,19,16,13,70,45,26,30.52,30.30,12,1,18,0.00
2013-1-19,54,38,23,18,16,14,69,43,21,30.48,30.33,16,4,17,0.00
2013-1-20,53,36,20,19,12,4,79,42,13,30.49,30.24,15,3,19,0.00
2013-1-21,52,37,20,16,12,9,68,38,22,30.45,30.26,17,5,21,0.00
2013-1-22,58,40,24,17,12,5,62,34,12,30.47,30.27,19,5,25,0.04
2013-1-23,56,41,24,14,10,6,55,30,17,30.53,30.33,10,1,14,0.00
2013-1-24,61,45,28,34,17,7,65,35,17,30.47,30.23,14,2,20,0.00
2013-1-25,57,46,37,39,34,29,76,63,49,30.41,30.25,9,1,10,0.00
2013-1-26,51,45,41,51,39,34,100,81,62,30.29,30.04,15,1,26,0.24
2013-1-27,58,46,37,41,37,30,97,72,36,30.14,30.01,17,3,24,0.01
2013-1-28,54,42,33,40,32,18,90,69,34,30.10,29.86,26,6,28,0.00
2013-1-29,33,28,23,20,14,3,76,56,30,30.15,29.85,35,13,47,0.04
2013-1-30,39,28,16,18,13,5,87,55,31,30.35,30.14,28,6,32,0.00
2013-1-31,50,36,22,26,20,16,87,56,26,30.41,30.27,16,3,24,0.00
2013-2-1,56,40,25,22,18,14,74,46,21,30.42,30.22,12,2,18,0.00
2013-2-2,57,42,29,24,20,14,73,44,21,30.48,30.33,11,3,14,0.00
2013-2-3,51,41,31,29,20,16,59,45,27,30.44,30.13,10,2,13,0.04
2013-2-4,54,42,34,29,24,18,76,50,25,30.23,30.10,19,7,21,0.00
2013-2-5,60,44,32,24,18,13,65,38,16,30.25,30.06,13,2,15,0.00
2013-2-6,57,43,28,28,21,14,66,42,28,30.19,29.97,13,3,15,0.00
2013-2-7,56,43,33,25,19,8,67,40,17,30.27,30.14,14,3,15,0.00
2013-2-8,56,43,32,23,19,16,56,40,27,30.28,29.94,24,4,25,0.00
2013-2-9,47,34,26,24,13,2,72,44,22,30.04,29.80,36,9,38,0.00
2013-2-10,41,31,20,22,13,8,88,51,26,30.15,30.00,13,4,23,0.00
2013-2-11,45,30,18,27,18,2,96,66,18,30.19,30.01,17,3,24,0.00
2013-2-12,38,28,19,20,12,2,85,54,22,30.35,30.14,27,9,33,0.00
2013-2-13,45,32,17,16,12,7,66,45,27,30.33,30.13,22,6,29,0.00
2013-2-14,48,36,23,19,16,14,71,46,26,30.36,30.14,28,9,33,0.00
2013-2-15,50,37,22,22,12,3,84,41,14,30.48,30.29,22,6,39,0.00
2013-2-16,58,40,23,13,6,-4,51,27,8,30.54,30.23,14,2,22,0.00
2013-2-17,60,42,21,9,4,1,41,22,10,30.31,29.85,18,3,22,0.00
2013-2-18,49,39,30,17,-2,-17,53,21,7,30.25,29.98,21,7,29,0.00
2013-2-19,57,41,27,34,6,-12,75,27,12,30.26,29.88,18,6,28,0.00
2013-2-20,50,40,31,35,28,15,84,68,29,29.94,29.72,20,6,29,0.00
2013-2-21,45,35,27,27,20,13,90,58,28,30.08,29.78,19,4,26,0.00
2013-2-22,43,32,23,23,17,7,80,55,27,30.23,30.03,25,3,28,0.00
2013-2-23,50,33,16,17,10,6,73,42,18,30.26,29.89,17,2,17,0.00
2013-2-24,39,31,25,23,12,2,73,49,26,30.07,29.83,33,12,40,0.00
2013-2-25,46,33,21,15,8,-1,67,39,15,30.20,30.04,23,9,27,0.00
2013-2-26,43,31,17,15,3,-9,62,32,13,30.24,29.95,32,8,43,0.00
2013-2-27,45,31,18,9,3,-4,57,32,14,30.40,30.24,17,4,28,0.00
2013-2-28,50,35,20,7,2,-4,46,27,11,30.45,30.26,24,7,30,0.00
2013-3-1,57,43,29,20,13,4,42,30,20,30.47,30.29,24,8,27,0.00
2013-3-2,66,48,32,23,19,14,60,34,16,30.52,30.24,16,3,21,0.00
2013-3-3,65,51,31,24,15,1,52,27,8,30.33,29.97,22,5,32,0.00
2013-3-4,60,51,39,22,19,15,42,29,19,30.27,29.91,32,8,35,0.00
2013-3-5,59,45,29,21,15,1,67,34,10,30.41,30.22,11,2,16,0.00
2013-3-6,64,51,41,25,19,10,39,29,21,30.31,30.04,13,2,16,0.00
2013-3-7,69,54,34,20,15,9,37,22,13,30.22,29.99,12,1,19,0.00
2013-3-8,59,46,37,42,24,9,91,49,19,30.14,29.93,11,2,22,0.08
2013-3-9,44,36,28,35,24,14,91,64,32,30.16,29.94,27,5,31,0.00
2013-3-10,50,37,25,30,22,12,94,60,26,30.33,30.13,17,4,24,0.00
2013-3-11,60,45,26,20,16,8,64,35,13,30.35,30.08,18,5,27,0.00
2013-3-12,65,50,34,25,20,18,55,32,17,30.37,30.17,16,4,22,0.00
2013-3-13,68,52,34,26,21,14,60,33,16,30.47,30.24,15,3,18,0.00
2013-3-14,74,58,41,24,18,9,44,24,10,30.45,30.22,11,1,13,0.00
2013-3-15,76,60,41,21,15,10,32,18,9,30.35,30.02,9,1,15,0.00
2013-3-16,69,58,46,34,21,11,53,24,14,30.12,29.89,24,5,33,0.00
2013-3-17,67,52,38,34,20,-5,71,38,6,30.07,29.81,27,7,40,0.00
2013-3-18,64,51,37,11,6,1,29,17,9,30.17,29.98,26,6,37,0.00
2013-3-19,61,49,40,16,8,0,32,19,13,30.33,30.10,17,2,27,0.00
2013-3-20,63,49,31,26,18,12,50,30,17,30.40,30.02,13,3,21,0.00
2013-3-21,68,56,47,32,19,4,48,26,8,30.02,29.73,30,10,42,0.00
2013-3-22,64,51,35,26,11,4,40,21,10,30.03,29.76,24,6,32,0.00
2013-3-23,48,37,24,25,-1,-16,51,21,9,30.27,29.90,36,13,50,0.00
2013-3-24,51,36,19,0,-6,-16,29,17,11,30.30,30.00,28,5,35,0.00
2013-3-25,52,34,19,10,6,-3,63,32,16,30.34,30.14,15,3,29,0.00
2013-3-26,64,46,29,14,9,4,37,23,12,30.34,30.04,16,3,22,0.00
2013-3-27,70,56,40,16,11,5,30,18,9,30.22,30.03,22,4,27,0.00
2013-3-28,71,60,44,23,14,6,24,17,11,30.24,30.08,18,2,30,0.00
2013-3-29,71,59,47,22,18,15,28,21,13,30.30,30.10,18,3,26,0.00
2013-3-30,72,59,42,26,20,14,34,23,13,30.32,30.06,17,4,27,0.00
2013-3-31,72,60,47,32,26,23,47,29,18,30.24,30.03,13,2,17,0.00
2013-4-1,72,61,44,26,18,4,39,21,8,30.20,29.94,16,4,26,0.00
2013-4-2,66,54,42,23,15,4,35,22,9,30.14,29.91,29,4,39,0.00
2013-4-3,64,50,35,30,24,18,72,40,17,30.26,30.08,17,3,22,0.00
2013-4-4,73,56,38,28,20,10,56,28,11,30.35,30.12,10,1,18,0.00
2013-4-5,75,62,49,20,14,10,22,15,9,30.22,29.89,22,5,27,0.00
2013-4-6,74,62,48,26,21,15,34,21,13,30.14,29.91,16,4,26,0.00
2013-4-7,72,62,47,25,20,14,37,21,12,30.06,29.85,22,6,28,0.00
2013-4-8,75,61,48,29,21,14,42,23,10,29.94,29.53,36,9,37,0.00
2013-4-9,50,44,38,35,31,24,79,61,38,30.03,29.66,19,7,26,0.04
2013-4-10,48,39,33,35,23,16,92,56,35,30.15,30.03,19,5,29,0.00
2013-4-11,62,46,30,29,22,14,55,39,24,30.14,29.92,22,6,32,0.00
2013-4-12,68,56,43,33,28,22,61,37,19,30.09,29.92,15,1,24,0.00
2013-4-13,71,59,40,26,20,14,43,24,12,30.09,29.78,21,5,29,0.00
2013-4-14,73,62,50,25,22,18,31,22,13,29.88,29.71,28,11,36,0.00
2013-4-15,77,62,47,25,19,12,34,21,9,29.95,29.67,30,9,44,0.00
2013-4-16,78,64,51,26,15,0,30,17,6,29.97,29.72,29,9,38,0.00
2013-4-17,58,50,37,27,19,7,42,30,14,30.14,29.78,45,13,56,0.01
2013-4-18,46,38,27,15,5,-1,44,27,14,30.34,30.14,30,13,38,0.00
2013-4-19,62,45,26,7,4,1,34,20,9,30.43,30.07,17,3,22,0.00
2013-4-20,66,54,42,20,11,4,31,18,11,30.19,29.95,33,6,35,0.00
2013-4-21,71,56,39,23,17,6,41,24,8,30.27,30.03,17,5,23,0.00
2013-4-22,78,63,45,20,14,10,28,16,8,30.18,29.85,21,6,30,0.04
2013-4-23,66,55,37,29,15,-11,52,23,6,30.26,29.96,26,7,40,0.00
2013-4-24,70,48,25,18,16,13,68,34,12,30.34,30.07,13,2,26,0.00
2013-4-25,72,58,45,30,23,12,41,27,10,30.24,29.93,23,7,31,0.00
2013-4-26,72,59,42,31,19,0,51,25,6,30.32,30.12,22,4,27,0.00
2013-4-27,75,60,45,28,14,-6,42,21,6,30.36,30.10,13,3,21,0.00
2013-4-28,78,64,45,15,7,0,20,11,6,30.24,29.96,13,3,19,0.00
2013-4-29,82,67,49,18,13,5,20,12,8,30.12,29.82,17,3,23,0.00
2013-4-30,82,70,55,21,15,11,21,13,7,30.02,29.80,19,6,29,0.04
2013-5-1,79,67,49,27,13,-6,42,13,7,30.33,29.94,20,7,32,0.00
2013-5-2,60,48,34,28,17,10,59,33,14,30.53,30.33,16,4,23,0.04
2013-5-3,66,49,30,18,13,8,47,25,11,30.52,30.08,12,2,18,0.00
2013-5-4,75,59,40,14,10,7,26,15,9,30.18,29.95,23,4,28,0.00
2013-5-5,71,60,47,31,20,11,30,22,14,30.26,30.07,22,4,27,0.00
2013-5-6,67,59,53,37,25,16,51,28,21,30.15,30.03,17,5,27,0.00
2013-5-7,73,62,45,35,29,25,50,31,18,30.20,29.98,15,3,33,0.00
2013-5-8,69,59,46,35,26,17,56,31,15,30.17,30.01,16,4,20,0.00
2013-5-9,72,59,45,30,25,20,40,28,16,30.24,30.04,19,3,26,0.00
2013-5-10,68,57,47,41,34,30,68,43,28,30.41,30.17,13,2,20,0.00
2013-5-11,70,57,44,43,35,28,85,49,21,30.45,30.29,18,4,21,0.00
2013-5-12,79,62,44,35,31,26,61,34,14,30.46,30.16,14,0,22,0.00
2013-5-13,82,67,50,31,27,22,43,24,13,30.39,30.14,7,0,11,0.00
2013-5-14,83,69,55,39,26,18,35,21,11,30.26,29.96,27,2,32,0.04
2013-5-15,85,71,62,40,33,20,40,27,12,30.13,29.91,25,4,28,0.04
2013-5-16,84,72,57,27,20,10,27,15,7,30.15,29.90,16,4,22,0.00
2013-5-17,85,71,54,22,17,11,22,13,8,30.16,29.92,15,3,27,0.00
2013-5-18,78,67,57,30,19,11,32,16,9,30.16,29.90,26,9,29,0.00
2013-5-19,72,62,53,35,29,16,49,31,13,30.11,29.94,32,11,39,0.00
2013-5-20,73,59,46,35,29,15,60,34,12,30.15,29.94,26,6,38,0.00
2013-5-21,78,63,46,34,28,20,56,29,12,30.20,29.94,16,4,25,0.00
2013-5-22,86,71,53,26,19,10,31,16,6,30.10,29.86,13,2,18,0.00
2013-5-23,89,74,57,29,16,4,22,11,6,30.11,29.90,16,2,22,0.00
2013-5-24,76,65,58,51,43,29,64,46,23,30.20,30.07,9,1,11,0.00
2013-5-30,83,79,67,25,20,16,16,11,8,30.02,29.85,27,12,33,0.00
2013-5-31,82,73,62,36,24,6,35,18,8,30.13,29.92,32,10,36,0.00
2013-6-1,84,70,51,29,10,4,22,10,5,30.24,30.03,13,2,22,0.00
2013-6-2,83,71,58,50,35,28,49,27,18,30.24,29.98,15,3,23,0.06
2013-6-3,90,74,61,49,35,12,60,30,7,30.15,29.88,16,5,30,0.00
2013-6-4,91,77,59,30,18,9,18,12,5,30.14,29.91,17,4,23,0.00
2013-6-5,89,75,64,42,29,18,39,19,8,30.14,29.92,18,4,27,0.00
2013-6-6,87,71,55,45,38,25,58,33,13,30.18,29.95,18,3,26,0.00
2013-6-7,88,71,58,50,42,25,73,39,11,30.20,29.89,25,4,29,0.00
2013-6-8,92,76,57,44,34,21,59,27,8,30.10,29.83,28,6,35,0.00
2013-6-9,92,79,62,46,37,22,50,25,8,30.16,29.96,15,2,16,0.00
2013-6-10,97,83,69,47,36,23,44,22,8,30.16,29.94,18,2,25,0.00
2013-6-11,96,84,70,30,20,11,16,10,5,30.18,29.95,22,5,24,0.00
2013-6-12,96,82,62,30,20,15,18,11,6,30.23,30.02,13,2,19,0.00
2013-6-13,96,82,67,40,33,22,30,18,8,30.20,29.96,21,2,31,0.00
2013-6-14,90,77,66,52,45,29,50,34,12,30.18,29.96,30,4,37,0.00
2013-6-15,91,76,60,49,40,25,62,32,10,30.20,29.99,27,5,47,0.04
2013-6-16,91,77,63,43,39,31,42,27,13,30.24,30.04,27,4,56,0.00
2013-6-17,91,77,62,45,37,31,39,25,12,30.23,29.98,14,2,19,0.00
2013-6-18,87,76,63,50,45,36,63,36,17,30.24,29.97,18,5,22,0.00
2013-6-19,95,80,62,43,22,6,39,17,4,30.12,29.84,17,4,27,0.00
2013-6-20,94,78,62,44,14,-8,44,13,2,30.14,29.88,16,2,23,0.00
2013-6-21,92,77,60,42,15,-1,31,10,4,30.20,29.91,19,4,23,0.00
2013-6-22,90,77,60,23,14,8,16,10,5,30.17,29.92,26,5,26,0.00
2013-6-23,90,77,60,22,14,5,15,9,5,30.14,29.88,15,3,20,0.00
2013-6-24,90,78,64,23,11,3,13,8,4,30.12,29.92,19,5,26,0.00
2013-6-25,93,79,62,26,20,12,19,11,7,30.20,29.98,15,4,21,0.04
2013-6-26,97,82,63,29,25,22,23,13,8,30.22,30.00,9,1,14,0.00
2013-6-27,102,87,71,31,26,16,20,12,5,30.23,30.02,15,2,20,0.00
2013-6-28,95,83,70,53,40,30,55,24,13,30.36,30.13,29,5,40,0.00
2013-6-29,97,79,65,48,43,34,50,31,12,30.31,30.02,18,3,32,0.00
2013-6-30,94,78,66,50,44,38,51,32,15,30.31,29.99,29,3,38,0.00
2013-7-1,87,72,59,54,49,41,83,49,21,30.37,30.11,18,3,24,0.00
2013-7-2,85,70,59,52,47,40,66,46,23,30.39,30.11,21,5,27,0.00
2013-7-3,83,75,64,56,49,42,70,44,27,30.17,30.00,11,3,33,0.25
2013-7-4,90,75,60,56,49,37,80,46,17,30.18,29.97,12,1,17,0.00
2013-7-5,88,75,65,60,51,43,81,47,23,30.18,29.93,23,2,32,0.27
2013-7-6,90,73,62,61,54,45,87,57,22,30.22,29.94,22,5,25,0.02
2013-7-7,94,76,64,59,53,42,85,50,18,30.22,29.99,10,1,12,0.01
2013-7-8,88,75,66,61,53,47,83,47,24,30.34,30.11,23,3,26,0.03
2013-7-9,94,75,64,60,55,47,86,55,21,30.34,30.07,27,2,29,0.01
2013-7-10,92,79,69,55,50,44,55,39,20,30.29,30.07,15,2,21,0.00
2013-7-11,87,75,66,59,55,48,75,52,27,30.32,30.06,13,2,24,0.09
2013-7-12,89,76,67,57,53,47,65,47,25,30.22,30.06,19,2,22,0.00
2013-7-13,90,76,68,57,54,49,63,47,25,30.25,30.10,18,2,23,0.36
2013-7-14,94,76,64,63,54,44,94,52,19,30.28,29.96,12,1,21,0.25
2013-7-15,74,67,63,64,57,49,97,72,51,30.29,30.20,19,3,28,0.01
2013-7-16,81,69,59,52,47,42,74,49,27,30.35,30.16,15,2,23,0.00
2013-7-17,79,69,60,53,50,44,77,53,31,30.42,30.24,12,3,18,0.00
2013-7-18,84,72,59,54,51,48,80,51,31,30.39,30.14,12,2,17,0.00
2013-7-19,88,72,63,60,56,52,83,58,31,30.29,30.07,31,2,34,0.02
2013-7-20,88,72,63,59,56,50,87,60,31,30.25,30.00,17,4,23,0.04
2013-7-21,89,75,65,58,54,46,73,50,25,30.19,30.00,13,2,21,0.00
2013-7-22,92,79,65,54,49,41,65,39,18,30.20,29.99,14,1,16,0.00
2013-7-23,95,78,68,54,49,41,56,37,17,30.20,29.98,18,1,21,0.00
2013-7-24,90,73,64,61,52,44,85,52,24,30.32,30.08,15,1,76,0.05
2013-7-25,84,72,62,60,57,55,87,61,38,30.32,30.13,15,2,19,0.00
2013-7-26,70,64,62,62,59,57,99,83,71,30.37,30.29,18,6,25,0.05
2013-7-30,87,81,76,45,42,38,33,26,18,30.30,30.19,0,0,0,0.28
2013-7-31,94,81,68,49,43,37,46,28,14,30.36,30.13,18,2,23,0.00
2013-8-1,83,72,64,63,56,49,93,58,35,30.36,30.18,16,2,35,0.50
2013-8-2,89,73,62,63,57,48,97,64,24,30.31,30.05,15,2,26,0.37
2013-8-3,91,74,61,59,55,47,91,57,23,30.29,30.08,7,0,12,1.17
2013-8-4,92,76,63,61,55,46,90,52,22,30.34,30.08,15,3,27,0.46
2013-8-5,89,73,63,60,56,49,86,57,28,30.32,30.07,14,2,15,0.03
2013-8-6,86,73,64,57,53,48,71,51,28,30.23,30.08,21,4,25,0.03
2013-8-7,79,69,61,57,53,47,79,58,34,30.24,30.10,21,5,24,0.00
2013-8-8,82,70,60,57,50,40,84,53,24,30.23,30.08,26,6,27,0.04
2013-8-9,87,72,60,50,45,37,66,41,18,30.31,30.12,20,5,26,0.03
2013-8-10,82,68,59,54,50,41,84,55,32,30.44,30.22,28,4,103,0.10
2013-8-11,83,69,58,57,52,45,89,58,27,30.43,30.16,10,1,12,0.00
2013-8-12,82,69,62,60,55,52,81,63,38,30.35,30.17,10,1,25,0.12
2013-8-13,89,74,62,59,50,39,79,48,21,30.31,30.15,23,2,27,0.00
2013-8-14,86,73,63,57,50,37,78,49,20,30.32,30.12,14,2,24,0.00
2013-8-15,89,74,63,54,48,38,67,44,18,30.32,30.12,9,1,20,0.00
2013-8-16,92,76,60,51,45,34,66,37,13,30.34,30.11,8,0,11,0.04
2013-8-17,92,80,69,50,45,38,46,30,17,30.30,30.08,17,2,23,0.01
2013-8-18,90,79,68,49,46,40,50,32,18,30.29,30.10,19,3,22,0.00
2013-8-19,92,77,66,57,49,41,70,40,18,30.29,30.06,14,2,21,0.08
2013-8-20,90,73,60,60,54,47,91,56,24,30.31,30.04,15,1,20,0.04
2013-8-21,88,77,65,55,50,43,68,42,22,30.27,30.08,12,2,21,0.00
2013-8-22,90,77,64,52,46,39,59,35,21,30.31,30.09,10,1,13,0.00
2013-8-23,85,74,63,49,43,37,45,33,22,30.27,30.09,15,3,20,0.00
2013-8-24,82,71,61,60,54,46,91,58,31,30.31,30.13,13,2,23,0.24
2013-8-25,85,71,63,62,57,52,92,64,33,30.37,30.22,15,1,21,0.06
2013-8-26,87,74,64,58,54,49,76,52,28,30.37,30.16,21,1,27,0.02
2013-8-27,86,75,63,53,49,44,65,43,25,30.32,30.10,9,1,14,0.00
2013-8-28,87,74,64,54,49,44,58,42,24,30.31,30.14,11,2,17,0.00
2013-8-29,85,74,66,56,53,48,66,51,29,30.35,30.20,13,2,19,0.00
2013-8-30,91,76,63,60,52,43,80,47,23,30.35,30.10,10,0,14,0.00
2013-8-31,93,79,65,57,49,41,69,39,18,30.26,30.00,10,1,16,0.00
2013-9-1,92,78,68,56,48,42,58,37,18,30.30,30.05,22,5,38,0.00
2013-9-2,86,76,67,55,53,48,63,46,29,30.31,30.11,13,2,19,0.00
2013-9-3,89,77,65,57,52,45,72,45,22,30.31,30.10,17,1,21,0.00
2013-9-4,89,77,65,52,45,34,55,35,20,30.34,30.16,12,3,17,0.00
2013-9-5,89,76,64,40,37,33,38,25,16,30.37,30.18,11,1,12,0.00
2013-9-6,89,75,61,40,36,32,36,25,16,30.37,30.12,10,1,13,0.00
2013-9-7,87,75,63,51,46,39,50,37,24,30.30,30.11,6,1,16,0.00
2013-9-8,87,74,62,54,46,42,62,39,22,30.24,30.00,15,3,23,0.00
2013-9-9,84,73,63,54,49,41,64,45,27,30.17,29.95,13,3,22,0.00
2013-9-10,70,63,53,63,57,53,100,83,56,30.26,30.13,12,1,19,0.67
2013-9-11,81,67,56,64,57,48,100,75,34,30.28,30.12,9,0,11,0.01
2013-9-12,69,63,59,64,60,56,100,90,76,30.31,30.18,16,3,19,0.68
2013-9-13,69,61,55,60,58,55,100,90,64,30.27,30.12,16,2,18,1.00
2013-9-14,73,63,55,63,57,54,100,84,52,30.26,30.08,9,1,21,0.65
2013-9-15,79,65,55,60,54,48,100,73,36,30.31,30.12,7,0,10,0.18
2013-9-16,78,66,54,56,53,49,94,66,37,30.37,30.18,6,0,13,0.00
2013-9-17,79,68,58,58,55,51,91,65,39,30.31,30.07,7,1,14,0.00
2013-9-18,79,69,61,60,56,48,93,65,39,30.19,30.03,11,2,16,0.00
2013-9-19,82,69,58,59,50,35,97,56,23,30.18,30.02,13,1,17,0.05
2013-9-20,81,68,57,53,48,36,78,52,29,30.26,30.08,13,2,17,0.00
2013-9-21,78,66,56,55,52,46,92,62,36,30.27,30.04,10,2,17,0.00
2013-9-22,77,64,54,56,50,35,90,62,33,30.14,29.81,22,6,33,0.15
2013-9-23,69,59,45,41,34,30,67,41,24,30.26,30.04,30,7,30,0.00
2013-9-24,77,62,50,41,37,32,60,41,20,30.34,30.12,9,2,16,0.00
2013-9-25,81,66,49,43,38,32,67,39,17,30.20,29.86,14,3,20,0.00
2013-9-26,80,67,52,41,35,29,53,33,16,30.07,29.88,22,6,27,0.00
2013-9-27,67,56,44,49,39,27,63,52,37,30.28,29.98,20,4,29,0.00
2013-9-28,69,54,39,26,23,18,58,34,15,30.37,30.23,11,4,16,0.00
2013-9-29,76,59,44,29,23,18,43,27,12,30.40,30.14,16,2,18,0.00
2013-9-30,79,64,46,33,26,22,47,25,13,30.26,30.02,20,4,21,0.00
2013-10-1,82,65,50,33,24,15,36,23,9,30.22,30.02,12,2,19,0.00
2013-10-2,78,64,50,32,27,17,37,25,11,30.24,30.02,11,1,19,0.00
2013-10-3,77,62,47,35,30,18,51,31,11,30.16,29.90,16,2,22,0.00
2013-10-4,60,53,45,32,19,9,47,28,14,30.29,30.04,25,11,30,0.00
2013-10-5,59,48,34,22,18,13,59,32,17,30.43,30.27,22,7,27,0.00
2013-10-6,71,54,41,24,21,15,41,28,13,30.45,30.26,11,2,15,0.00
2013-10-7,73,57,39,25,21,18,44,26,13,30.44,30.18,8,1,11,0.00
2013-10-8,75,60,45,31,28,24,47,31,18,30.27,29.98,10,1,15,0.00
2013-10-9,73,61,45,36,30,26,52,33,19,30.14,29.98,14,2,20,0.00
2013-10-10,68,54,40,45,35,26,82,49,29,30.19,29.90,32,8,44,0.14
2013-10-11,60,46,31,33,30,27,89,55,31,30.26,30.10,18,4,25,0.00
2013-10-12,68,52,38,35,32,29,73,49,25,30.33,30.14,12,1,15,0.00
2013-10-13,75,61,49,44,38,34,58,44,24,30.30,30.04,19,6,30,0.00
2013-10-14,66,56,44,43,28,16,59,36,17,30.25,30.09,15,5,25,0.00
2013-10-15,64,51,40,34,26,20,57,39,26,30.27,30.07,15,5,20,0.00
2013-10-16,60,48,39,35,27,13,76,46,19,30.30,30.16,19,6,25,0.00
2013-10-17,64,49,33,21,17,14,49,29,17,30.34,30.07,12,3,18,0.00
2013-10-18,60,49,35,20,15,11,45,26,16,30.33,30.12,29,10,34,0.00
2013-10-19,64,47,31,27,21,12,79,42,15,30.39,30.14,12,2,20,0.00
2013-10-20,68,53,37,21,16,12,42,25,12,30.24,29.99,24,5,28,0.00
2013-10-21,63,51,39,32,26,14,67,40,23,30.35,30.15,13,2,15,0.00
2013-10-22,66,51,35,27,23,19,60,36,19,30.43,30.23,9,0,9,0.00
2013-10-23,69,54,40,29,23,18,41,31,20,30.37,30.18,6,1,10,0.00
2013-10-24,72,58,47,47,29,21,87,36,20,30.39,30.17,18,2,22,0.13
2013-10-25,64,52,45,49,45,38,100,80,46,30.41,30.22,19,4,36,0.14
2013-10-26,68,51,39,46,40,33,100,68,32,30.43,30.29,11,1,13,0.00
2013-10-27,66,53,39,39,36,32,83,55,31,30.40,30.06,10,0,12,0.00
2013-10-28,67,54,46,40,33,22,71,48,23,30.15,29.98,8,0,15,0.00
2013-10-29,66,57,45,29,25,21,45,30,22,30.20,29.97,18,5,27,0.00
2013-10-30,59,48,35,37,31,24,79,54,33,30.19,29.99,22,6,33,0.00
2013-10-31,52,42,32,30,26,21,81,54,30,30.29,30.13,25,6,32,0.00
2013-11-1,58,46,36,28,25,22,65,45,27,30.39,30.22,25,11,31,0.00
2013-11-2,62,48,34,29,25,21,67,42,24,30.45,30.20,10,2,14,0.00
2013-11-3,65,52,40,41,30,22,82,46,26,30.22,29.90,16,4,23,0.02
2013-11-4,63,52,37,42,35,30,77,53,32,30.12,29.94,16,4,20,0.00
2013-11-5,49,42,32,44,30,13,99,66,41,30.41,30.02,25,9,32,0.20
2013-11-6,52,39,25,19,15,10,66,39,22,30.55,30.39,21,8,26,0.04
2013-11-7,59,44,33,23,20,15,58,38,22,30.57,30.35,8,1,15,0.00
2013-11-8,62,47,33,26,22,17,58,40,24,30.42,30.15,9,1,11,0.00
2013-11-9,69,51,34,26,22,19,61,34,17,30.37,30.18,9,1,12,0.00
2013-11-10,68,52,41,26,23,19,44,33,18,30.42,30.26,9,1,11,0.00
2013-11-11,68,53,42,26,22,18,46,31,16,30.48,30.27,10,3,15,0.00
2013-11-12,58,46,37,35,31,19,86,56,32,30.64,30.47,15,3,22,0.00
2013-11-13,55,42,32,42,35,32,100,78,49,30.63,30.32,9,2,14,0.00
2013-11-14,60,45,33,48,33,22,100,68,30,30.32,30.08,8,1,13,0.00
2013-11-15,59,44,32,43,33,26,89,66,37,30.15,29.87,15,3,25,0.06
2013-11-16,58,49,39,41,34,25,88,59,35,30.04,29.82,21,7,27,0.01
2013-11-17,60,47,36,32,28,24,68,49,33,30.33,30.05,18,4,24,0.00
2013-11-18,59,44,35,32,29,25,71,55,34,30.37,30.22,8,1,12,0.00
2013-11-19,60,47,32,34,31,27,82,56,34,30.31,30.01,8,1,9,0.00
2013-11-20,49,43,41,42,36,29,100,79,56,30.14,30.07,10,2,17,0.20
2013-11-21,52,44,37,48,43,37,100,96,77,30.26,30.13,9,1,14,0.28
2013-11-22,41,33,29,41,30,26,100,88,79,30.46,30.25,14,4,17,0.09
2013-11-23,36,32,25,30,26,20,100,79,67,30.51,30.40,15,5,23,0.00
2013-11-24,33,26,20,25,21,18,100,85,60,30.48,30.27,10,2,14,0.08
2013-11-25,43,32,23,35,27,23,100,84,60,30.48,30.23,18,4,25,0.02
2013-11-26,48,35,25,32,28,23,99,77,49,30.53,30.41,4,0,10,0.00
2013-11-27,48,35,24,30,26,22,94,73,46,30.53,30.28,9,1,11,0.00
2013-11-28,50,36,25,27,25,22,93,67,38,30.43,30.27,13,1,13,0.00
2013-11-29,55,40,27,30,27,22,83,63,36,30.48,30.31,6,0,9,0.00
2013-11-30,56,42,31,34,30,26,83,65,42,30.47,30.27,7,0,9,0.00
2013-12-1,46,36,30,32,29,26,90,76,55,30.44,30.33,23,6,28,0.00
2013-12-2,50,37,29,29,27,25,85,67,41,30.37,30.08,19,6,22,0.00
2013-12-3,62,45,30,28,21,11,77,44,13,30.09,29.77,22,5,32,0.00
2013-12-4,57,43,33,32,23,15,77,48,24,30.06,29.75,33,9,42,0.04
2013-12-5,34,24,13,30,23,13,100,95,64,30.19,30.02,16,3,17,0.00
2013-12-6,32,21,8,22,14,8,100,78,47,30.29,30.18,8,0,12,0.01
2013-12-7,30,23,15,29,20,11,100,89,70,30.26,30.02,12,1,14,0.00
2013-12-8,32,27,22,24,14,7,85,61,45,30.18,29.96,35,8,35,0.00
2013-12-9,26,20,11,15,7,-1,82,58,33,30.57,30.17,30,9,37,0.01
2013-12-10,39,21,9,8,3,-2,72,47,19,30.60,30.32,11,1,13,0.00
2013-12-11,41,27,14,15,10,4,68,48,31,30.60,30.43,11,2,14,0.00
2013-12-12,41,32,23,19,13,9,61,46,31,30.59,30.28,14,2,15,0.00
2013-12-13,43,34,29,32,23,16,82,63,49,30.28,30.07,27,7,36,0.00
2013-12-14,46,33,24,20,17,15,71,53,29,30.52,30.27,19,6,24,0.00
2013-12-15,46,35,24,20,17,15,68,49,33,30.52,30.36,28,8,31,0.00
2013-12-16,52,40,27,22,19,18,70,44,27,30.50,30.31,30,6,38,0.00
2013-12-17,58,42,31,24,20,17,62,43,24,30.53,30.34,13,2,19,0.00
2013-12-18,53,39,28,24,21,18,66,49,29,30.42,30.12,6,0,7,0.00
2013-12-19,53,42,30,25,22,20,68,47,31,30.12,29.85,9,1,10,0.00
2013-12-20,52,40,29,30,23,18,74,52,28,30.00,29.80,8,1,11,0.00
2013-12-21,40,35,31,33,27,23,100,74,55,30.03,29.78,18,7,29,0.05
2013-12-22,42,31,22,24,17,10,87,58,29,30.43,30.03,17,4,21,0.00
2013-12-23,46,33,21,21,17,14,76,53,33,30.53,30.42,14,4,20,0.00
2013-12-24,49,36,22,23,20,17,84,54,33,30.51,30.26,17,3,24,0.00
2013-12-25,45,33,23,21,16,10,76,51,31,30.53,30.39,13,3,23,0.00
2013-12-26,52,35,21,18,15,11,70,46,22,30.53,30.30,13,3,17,0.00
2013-12-27,52,38,27,16,13,10,55,38,22,30.50,30.31,14,2,18,0.00
2013-12-28,48,35,23,19,15,12,64,45,28,30.38,30.06,12,1,14,0.00
2013-12-29,46,37,27,22,19,16,66,48,37,30.35,30.12,11,2,15,0.00
2013-12-30,48,36,25,17,11,4,59,38,18,30.48,30.29,21,6,25,0.00
2013-12-31,49,35,21,17,14,11,68,43,25,30.48,30.24,8,0,11,0.00
2014-1-1,52,40,27,20,16,13,63,39,22,30.45,30.20,24,8,31,0.00
2014-1-2,50,36,21,25,16,10,86,48,20,30.51,30.31,9,1,12,0.00